sensor_id;sensor_type;location;lat;lon;timestamp;P1;P2;P0
13030;PMS7003;6582;54.644;9.760;2022-09-28T00:00:04;157.6;157.3;
13030;PMS7003;6582;54.644;9.760;2022-09-28T00:05:01;154.0;153.8;
13030;PMS7003;6582;54.644;9.760;2022-09-28T00:10:01;146.0;145.8;
13030;PMS7003;6582;54.644;9.760;2022-09-28T00:15:08;139.2;139.2;
13030;PMS7003;6582;54.644;9.760;2022-09-28T00:20:06;129.9;129.9;
13030;PMS7003;6582;54.644;9.760;2022-09-28T00:25:07;123.9;123.9;
13030;PMS7003;6582;54.644;9.760;2022-09-28T00:30:01;118.5;118.2;
13030;PMS7003;6582;54.644;9.760;2022-09-28T00:35:02;125.4;125.0;
13030;PMS7003;6582;54.644;9.760;2022-09-28T00:40:07;123.1;122.6;
13030;PMS7003;6582;54.644;9.760;2022-09-28T00:45:01;119.3;118.5;
13030;PMS7003;6582;54.644;9.760;2022-09-28T01:05:02;90.6;80.4;
13030;PMS7003;6582;54.644;9.760;2022-09-28T01:10:02;90.0;79.2;
13030;PMS7003;6582;54.644;9.760;2022-09-28T01:15:07;89.6;78.2;
13030;PMS7003;6582;54.644;9.760;2022-09-28T01:20:06;99.2;90.7;
13030;PMS7003;6582;54.644;9.760;2022-09-28T01:25:09;97.0;87.6;
13030;PMS7003;6582;54.644;9.760;2022-09-28T01:30:11;96.4;86.7;
13030;PMS7003;6582;54.644;9.760;2022-09-28T01:35:50;96.5;86.7;
13030;PMS7003;6582;54.644;9.760;2022-09-28T01:55:05;98.0;90.4;
13030;PMS7003;6582;54.644;9.760;2022-09-28T02:00:07;97.0;89.0;
13030;PMS7003;6582;54.644;9.760;2022-09-28T02:05:10;108.1;102.5;
13030;PMS7003;6582;54.644;9.760;2022-09-28T02:10:07;100.8;93.4;
13030;PMS7003;6582;54.644;9.760;2022-09-28T02:15:10;96.2;87.4;
13030;PMS7003;6582;54.644;9.760;2022-09-28T02:20:01;92.6;82.5;
13030;PMS7003;6582;54.644;9.760;2022-09-28T02:25:05;89.0;77.9;
13030;PMS7003;6582;54.644;9.760;2022-09-28T02:30:03;78.7;65.0;
13030;PMS7003;6582;54.644;9.760;2022-09-28T02:35:01;78.4;64.5;
13030;PMS7003;6582;54.644;9.760;2022-09-28T02:40:02;79.2;65.1;
13030;PMS7003;6582;54.644;9.760;2022-09-28T03:05:11;86.4;70.2;
13030;PMS7003;6582;54.644;9.760;2022-09-28T03:10:12;90.1;75.8;
13030;PMS7003;6582;54.644;9.760;2022-09-28T03:15:11;88.7;75.3;
13030;PMS7003;6582;54.644;9.760;2022-09-28T03:20:03;87.8;74.5;
13030;PMS7003;6582;54.644;9.760;2022-09-28T03:25:08;87.1;73.7;
13030;PMS7003;6582;54.644;9.760;2022-09-28T03:30:02;87.2;74.6;
13030;PMS7003;6582;54.644;9.760;2022-09-28T03:35:02;86.4;73.9;
13030;PMS7003;6582;54.644;9.760;2022-09-28T03:40:07;86.8;74.4;
13030;PMS7003;6582;54.644;9.760;2022-09-28T03:45:02;87.5;75.3;
13030;PMS7003;6582;54.644;9.760;2022-09-28T03:50:13;89.0;78.2;
13030;PMS7003;6582;54.644;9.760;2022-09-28T03:55:03;90.3;80.2;
13030;PMS7003;6582;54.644;9.760;2022-09-28T04:00:12;97.3;89.4;
13030;PMS7003;6582;54.644;9.760;2022-09-28T04:05:07;98.2;90.9;
13030;PMS7003;6582;54.644;9.760;2022-09-28T04:10:02;98.4;91.2;
13030;PMS7003;6582;54.644;9.760;2022-09-28T04:15:02;98.0;89.9;
13030;PMS7003;6582;54.644;9.760;2022-09-28T04:20:09;97.4;89.1;
13030;PMS7003;6582;54.644;9.760;2022-09-28T04:25:02;91.7;82.1;
13030;PMS7003;6582;54.644;9.760;2022-09-28T04:30:02;89.1;78.0;
13030;PMS7003;6582;54.644;9.760;2022-09-28T04:35:03;87.4;76.1;
13030;PMS7003;6582;54.644;9.760;2022-09-28T04:40:02;86.6;74.8;
13030;PMS7003;6582;54.644;9.760;2022-09-28T04:45:02;94.7;83.4;
13030;PMS7003;6582;54.644;9.760;2022-09-28T04:50:05;91.6;79.2;
13030;PMS7003;6582;54.644;9.760;2022-09-28T04:55:02;92.4;79.9;
13030;PMS7003;6582;54.644;9.760;2022-09-28T05:00:12;93.2;80.4;
13030;PMS7003;6582;54.644;9.760;2022-09-28T05:05:02;93.3;81.0;
13030;PMS7003;6582;54.644;9.760;2022-09-28T05:10:02;85.0;72.0;
13030;PMS7003;6582;54.644;9.760;2022-09-28T05:15:07;87.2;75.0;
13030;PMS7003;6582;54.644;9.760;2022-09-28T05:20:02;88.5;77.2;
13030;PMS7003;6582;54.644;9.760;2022-09-28T05:25:02;89.1;78.2;
13030;PMS7003;6582;54.644;9.760;2022-09-28T05:30:07;86.8;75.7;
13030;PMS7003;6582;54.644;9.760;2022-09-28T05:35:03;87.0;75.7;
13030;PMS7003;6582;54.644;9.760;2022-09-28T05:40:02;84.8;72.5;
13030;PMS7003;6582;54.644;9.760;2022-09-28T05:45:03;81.9;69.1;
13030;PMS7003;6582;54.644;9.760;2022-09-28T05:50:17;80.3;67.0;
13030;PMS7003;6582;54.644;9.760;2022-09-28T05:55:07;81.3;67.6;
13030;PMS7003;6582;54.644;9.760;2022-09-28T06:00:03;79.4;64.8;
13030;PMS7003;6582;54.644;9.760;2022-09-28T06:05:03;78.8;64.0;
13030;PMS7003;6582;54.644;9.760;2022-09-28T06:10:02;79.0;64.4;
13030;PMS7003;6582;54.644;9.760;2022-09-28T06:15:02;78.6;64.2;
13030;PMS7003;6582;54.644;9.760;2022-09-28T06:20:02;78.9;64.7;
13030;PMS7003;6582;54.644;9.760;2022-09-28T06:25:02;78.4;64.4;
13030;PMS7003;6582;54.644;9.760;2022-09-28T06:30:02;79.4;65.4;
13030;PMS7003;6582;54.644;9.760;2022-09-28T06:35:02;79.9;65.4;
13030;PMS7003;6582;54.644;9.760;2022-09-28T06:40:02;82.0;67.8;
13030;PMS7003;6582;54.644;9.760;2022-09-28T06:45:02;83.8;70.4;
13030;PMS7003;6582;54.644;9.760;2022-09-28T06:50:02;84.5;71.4;
13030;PMS7003;6582;54.644;9.760;2022-09-28T06:55:02;84.2;71.2;
13030;PMS7003;6582;54.644;9.760;2022-09-28T07:00:02;84.6;72.1;
13030;PMS7003;6582;54.644;9.760;2022-09-28T07:05:02;83.5;70.2;
13030;PMS7003;6582;54.644;9.760;2022-09-28T07:10:02;81.6;67.4;
13030;PMS7003;6582;54.644;9.760;2022-09-28T07:15:03;82.1;68.4;
13030;PMS7003;6582;54.644;9.760;2022-09-28T07:20:20;82.6;69.5;
13030;PMS7003;6582;54.644;9.760;2022-09-28T07:25:02;87.4;76.7;
13030;PMS7003;6582;54.644;9.760;2022-09-28T07:30:03;88.7;78.8;
13030;PMS7003;6582;54.644;9.760;2022-09-28T07:35:02;90.4;81.2;
13030;PMS7003;6582;54.644;9.760;2022-09-28T07:45:02;89.6;80.0;
13030;PMS7003;6582;54.644;9.760;2022-09-28T07:50:01;85.2;73.4;
13030;PMS7003;6582;54.644;9.760;2022-09-28T07:55:08;84.8;73.6;
13030;PMS7003;6582;54.644;9.760;2022-09-28T08:00:03;84.6;73.9;
13030;PMS7003;6582;54.644;9.760;2022-09-28T08:05:03;85.2;75.5;
13030;PMS7003;6582;54.644;9.760;2022-09-28T08:10:02;87.9;79.4;
13030;PMS7003;6582;54.644;9.760;2022-09-28T08:15:07;88.8;80.6;
13030;PMS7003;6582;54.644;9.760;2022-09-28T08:20:02;88.0;79.5;
13030;PMS7003;6582;54.644;9.760;2022-09-28T08:25:02;87.8;79.1;
13030;PMS7003;6582;54.644;9.760;2022-09-28T08:30:02;87.6;78.0;
13030;PMS7003;6582;54.644;9.760;2022-09-28T08:35:07;85.8;75.0;
13030;PMS7003;6582;54.644;9.760;2022-09-28T08:40:15;84.9;73.2;
13030;PMS7003;6582;54.644;9.760;2022-09-28T08:45:07;84.9;72.8;
13030;PMS7003;6582;54.644;9.760;2022-09-28T08:50:02;84.4;72.1;
13030;PMS7003;6582;54.644;9.760;2022-09-28T08:55:10;82.0;68.9;
13030;PMS7003;6582;54.644;9.760;2022-09-28T09:00:19;79.9;66.9;
13030;PMS7003;6582;54.644;9.760;2022-09-28T09:05:03;78.9;66.0;
13030;PMS7003;6582;54.644;9.760;2022-09-28T09:10:12;75.4;62.8;
13030;PMS7003;6582;54.644;9.760;2022-09-28T09:15:08;73.2;59.9;
13030;PMS7003;6582;54.644;9.760;2022-09-28T09:20:06;74.0;61.0;
13030;PMS7003;6582;54.644;9.760;2022-09-28T09:25:06;72.2;59.7;
13030;PMS7003;6582;54.644;9.760;2022-09-28T09:30:04;70.1;58.2;
13030;PMS7003;6582;54.644;9.760;2022-09-28T09:55:14;59.2;49.8;
13030;PMS7003;6582;54.644;9.760;2022-09-28T10:00:02;60.9;50.6;
13030;PMS7003;6582;54.644;9.760;2022-09-28T10:05:05;67.5;56.3;
13030;PMS7003;6582;54.644;9.760;2022-09-28T10:10:02;66.9;55.5;
13030;PMS7003;6582;54.644;9.760;2022-09-28T10:15:02;65.8;54.7;
13030;PMS7003;6582;54.644;9.760;2022-09-28T10:25:01;66.4;54.9;
13030;PMS7003;6582;54.644;9.760;2022-09-28T10:30:03;63.4;52.1;
13030;PMS7003;6582;54.644;9.760;2022-09-28T11:15:10;64.0;52.6;
13030;PMS7003;6582;54.644;9.760;2022-09-28T11:35:11;66.4;55.6;
13030;PMS7003;6582;54.644;9.760;2022-09-28T11:40:41;68.4;56.5;
13030;PMS7003;6582;54.644;9.760;2022-09-28T11:55:04;59.8;50.0;
13030;PMS7003;6582;54.644;9.760;2022-09-28T12:00:04;66.4;55.2;
13030;PMS7003;6582;54.644;9.760;2022-09-28T12:05:08;64.7;53.8;
13030;PMS7003;6582;54.644;9.760;2022-09-28T12:10:12;63.8;53.0;
13030;PMS7003;6582;54.644;9.760;2022-09-28T12:15:04;63.3;52.7;
13030;PMS7003;6582;54.644;9.760;2022-09-28T12:20:15;65.0;54.1;
13030;PMS7003;6582;54.644;9.760;2022-09-28T12:35:02;63.6;52.2;
13030;PMS7003;6582;54.644;9.760;2022-09-28T13:15:16;61.8;52.0;
13030;PMS7003;6582;54.644;9.760;2022-09-28T13:35:02;68.6;56.4;
13030;PMS7003;6582;54.644;9.760;2022-09-28T13:40:02;68.3;56.2;
13030;PMS7003;6582;54.644;9.760;2022-09-28T14:05:04;56.0;47.0;
13030;PMS7003;6582;54.644;9.760;2022-09-28T14:10:19;57.5;48.4;
13030;PMS7003;6582;54.644;9.760;2022-09-28T14:45:18;57.0;48.0;
13030;PMS7003;6582;54.644;9.760;2022-09-28T14:50:20;55.5;47.0;
13030;PMS7003;6582;54.644;9.760;2022-09-28T14:55:01;56.9;48.1;
13030;PMS7003;6582;54.644;9.760;2022-09-28T15:00:06;58.1;48.8;
13030;PMS7003;6582;54.644;9.760;2022-09-28T15:05:11;58.8;49.4;
13030;PMS7003;6582;54.644;9.760;2022-09-28T15:10:01;60.0;50.2;
13030;PMS7003;6582;54.644;9.760;2022-09-28T15:15:03;62.5;52.0;
13030;PMS7003;6582;54.644;9.760;2022-09-28T15:20:09;62.3;51.9;
13030;PMS7003;6582;54.644;9.760;2022-09-28T15:25:11;64.3;53.5;
13030;PMS7003;6582;54.644;9.760;2022-09-28T16:05:18;69.6;57.2;
13030;PMS7003;6582;54.644;9.760;2022-09-28T16:25:13;63.0;53.0;
13030;PMS7003;6582;54.644;9.760;2022-09-28T16:45:02;75.6;61.6;
13030;PMS7003;6582;54.644;9.760;2022-09-28T16:50:03;74.8;61.4;
13030;PMS7003;6582;54.644;9.760;2022-09-28T16:55:25;73.8;61.1;
13030;PMS7003;6582;54.644;9.760;2022-09-28T17:00:02;74.9;62.1;
13030;PMS7003;6582;54.644;9.760;2022-09-28T17:05:02;76.2;63.4;
13030;PMS7003;6582;54.644;9.760;2022-09-28T17:10:04;77.2;64.7;
13030;PMS7003;6582;54.644;9.760;2022-09-28T17:15:02;78.7;66.2;
13030;PMS7003;6582;54.644;9.760;2022-09-28T17:20:05;79.8;67.0;
13030;PMS7003;6582;54.644;9.760;2022-09-28T17:25:02;79.6;66.7;
13030;PMS7003;6582;54.644;9.760;2022-09-28T17:30:02;78.2;65.3;
13030;PMS7003;6582;54.644;9.760;2022-09-28T17:35:17;77.2;64.2;
13030;PMS7003;6582;54.644;9.760;2022-09-28T17:40:09;75.9;62.8;
13030;PMS7003;6582;54.644;9.760;2022-09-28T17:45:02;75.4;62.4;
13030;PMS7003;6582;54.644;9.760;2022-09-28T17:50:04;76.4;63.2;
13030;PMS7003;6582;54.644;9.760;2022-09-28T17:55:02;77.6;64.2;
13030;PMS7003;6582;54.644;9.760;2022-09-28T18:00:05;79.6;66.3;
13030;PMS7003;6582;54.644;9.760;2022-09-28T18:05:02;87.0;76.4;
13030;PMS7003;6582;54.644;9.760;2022-09-28T18:10:02;90.3;80.4;
13030;PMS7003;6582;54.644;9.760;2022-09-28T18:15:04;90.0;80.1;
13030;PMS7003;6582;54.644;9.760;2022-09-28T18:20:02;91.2;82.2;
13030;PMS7003;6582;54.644;9.760;2022-09-28T18:25:14;91.1;82.3;
13030;PMS7003;6582;54.644;9.760;2022-09-28T18:30:02;84.1;72.7;
13030;PMS7003;6582;54.644;9.760;2022-09-28T18:35:06;82.2;70.0;
13030;PMS7003;6582;54.644;9.760;2022-09-28T18:40:08;83.3;71.6;
13030;PMS7003;6582;54.644;9.760;2022-09-28T18:45:03;84.1;72.8;
13030;PMS7003;6582;54.644;9.760;2022-09-28T18:50:02;93.7;84.1;
13030;PMS7003;6582;54.644;9.760;2022-09-28T18:55:03;96.9;88.7;
13030;PMS7003;6582;54.644;9.760;2022-09-28T19:00:05;99.4;92.5;
13030;PMS7003;6582;54.644;9.760;2022-09-28T19:05:05;102.0;97.2;
13030;PMS7003;6582;54.644;9.760;2022-09-28T19:10:03;102.9;98.8;
13030;PMS7003;6582;54.644;9.760;2022-09-28T19:15:08;96.6;92.6;
13030;PMS7003;6582;54.644;9.760;2022-09-28T19:20:02;97.7;94.4;
13030;PMS7003;6582;54.644;9.760;2022-09-28T19:25:02;98.5;96.0;
13030;PMS7003;6582;54.644;9.760;2022-09-28T19:30:02;98.0;95.0;
13030;PMS7003;6582;54.644;9.760;2022-09-28T19:35:02;100.6;96.9;
13030;PMS7003;6582;54.644;9.760;2022-09-28T19:40:04;99.8;96.0;
13030;PMS7003;6582;54.644;9.760;2022-09-28T19:45:02;100.9;97.2;
13030;PMS7003;6582;54.644;9.760;2022-09-28T19:50:08;101.3;97.7;
13030;PMS7003;6582;54.644;9.760;2022-09-28T19:55:02;101.4;97.7;
13030;PMS7003;6582;54.644;9.760;2022-09-28T20:00:08;100.0;97.5;
13030;PMS7003;6582;54.644;9.760;2022-09-28T20:05:12;102.6;100.6;
13030;PMS7003;6582;54.644;9.760;2022-09-28T20:10:04;102.9;101.3;
13030;PMS7003;6582;54.644;9.760;2022-09-28T20:15:08;105.0;103.4;
13030;PMS7003;6582;54.644;9.760;2022-09-28T20:20:02;104.6;102.9;
13030;PMS7003;6582;54.644;9.760;2022-09-28T20:25:07;106.6;105.1;
13030;PMS7003;6582;54.644;9.760;2022-09-28T20:30:02;104.2;102.1;
13030;PMS7003;6582;54.644;9.760;2022-09-28T20:35:03;104.9;102.8;
13030;PMS7003;6582;54.644;9.760;2022-09-28T20:40:03;104.3;102.5;
13030;PMS7003;6582;54.644;9.760;2022-09-28T20:45:07;108.2;107.3;
13030;PMS7003;6582;54.644;9.760;2022-09-28T20:50:02;107.0;106.4;
13030;PMS7003;6582;54.644;9.760;2022-09-28T20:55:02;108.7;108.7;
13030;PMS7003;6582;54.644;9.760;2022-09-28T21:00:02;108.8;108.8;
13030;PMS7003;6582;54.644;9.760;2022-09-28T21:05:12;110.1;110.1;
13030;PMS7003;6582;54.644;9.760;2022-09-28T21:10:07;109.8;109.8;
13030;PMS7003;6582;54.644;9.760;2022-09-28T21:15:11;110.6;110.5;
13030;PMS7003;6582;54.644;9.760;2022-09-28T21:20:07;112.0;111.6;
13030;PMS7003;6582;54.644;9.760;2022-09-28T21:25:02;111.9;111.5;
13030;PMS7003;6582;54.644;9.760;2022-09-28T21:30:01;112.4;112.0;
13030;PMS7003;6582;54.644;9.760;2022-09-28T21:40:02;113.8;113.5;
13030;PMS7003;6582;54.644;9.760;2022-09-28T21:45:02;115.4;115.3;
13030;PMS7003;6582;54.644;9.760;2022-09-28T21:50:02;118.6;118.5;
13030;PMS7003;6582;54.644;9.760;2022-09-28T21:55:02;119.8;119.2;
13030;PMS7003;6582;54.644;9.760;2022-09-28T22:00:02;121.9;121.4;
13030;PMS7003;6582;54.644;9.760;2022-09-28T22:05:07;124.3;123.6;
13030;PMS7003;6582;54.644;9.760;2022-09-28T22:10:01;125.6;124.8;
13030;PMS7003;6582;54.644;9.760;2022-09-28T22:15:03;123.8;123.0;
13030;PMS7003;6582;54.644;9.760;2022-09-28T22:20:02;123.9;123.4;
13030;PMS7003;6582;54.644;9.760;2022-09-28T22:25:02;123.8;123.0;
13030;PMS7003;6582;54.644;9.760;2022-09-28T22:30:02;123.8;123.2;
13030;PMS7003;6582;54.644;9.760;2022-09-28T22:35:03;124.2;123.8;
13030;PMS7003;6582;54.644;9.760;2022-09-28T22:40:02;126.6;126.1;
13030;PMS7003;6582;54.644;9.760;2022-09-28T22:45:02;127.6;127.4;
13030;PMS7003;6582;54.644;9.760;2022-09-28T22:50:01;128.6;128.6;
13030;PMS7003;6582;54.644;9.760;2022-09-28T22:55:07;130.0;129.8;
13030;PMS7003;6582;54.644;9.760;2022-09-28T23:00:07;131.0;130.5;
13030;PMS7003;6582;54.644;9.760;2022-09-28T23:05:02;129.9;129.3;
13030;PMS7003;6582;54.644;9.760;2022-09-28T23:10:01;128.8;127.7;
13030;PMS7003;6582;54.644;9.760;2022-09-28T23:15:07;126.8;125.6;
13030;PMS7003;6582;54.644;9.760;2022-09-28T23:20:02;123.5;122.1;
13030;PMS7003;6582;54.644;9.760;2022-09-28T23:25:02;124.2;122.8;
13030;PMS7003;6582;54.644;9.760;2022-09-28T23:30:01;123.8;122.4;
13030;PMS7003;6582;54.644;9.760;2022-09-28T23:35:02;122.6;121.8;
13030;PMS7003;6582;54.644;9.760;2022-09-28T23:40:06;122.0;121.1;
13030;PMS7003;6582;54.644;9.760;2022-09-28T23:45:02;121.6;121.0;
13030;PMS7003;6582;54.644;9.760;2022-09-28T23:50:03;116.7;116.4;
13030;PMS7003;6582;54.644;9.760;2022-09-28T23:55:02;116.0;115.2;
